Terminal Aerodrome Forecast
Issued by NWS Portland, OR

Home | Current Version | Previous Version | Text Only | Print | Product List | Glossary On
Versions: 1 2 3 4 5 6 7 8 9 10 11 12 13 14 15 16 17 18 19 20 21 22
000
FTUS46 KPQR 181124
TAFTTD
TAF
KTTD 181124Z 1812/1912 02003KT P6SM SCT060
     FM181300 24003KT 6SM BR SCT010
     FM181600 26003KT P6SM SCT200
     FM190000 08003KT P6SM SCT150
     FM190900 10006KT P6SM BKN150=

USA.gov is the U.S. government's official web portal to all federal, state and local government web resources and services.